Terminal Aerodrome Forecast
Issued by NWS Shreveport, LA

Home | Current Version | Previous Version | Text Only | Print | Product List | Glossary On
Versions: 1 2 3 4 5 6 7 8 9 10 11 12 13 14 15 16 17 18 19
000
FTUS44 KSHV 302338
TAFELD
TAF
KELD 302338Z 3100/3124 20006KT P6SM BKN040 BKN060 OVC070
     FM310300 18003KT P6SM FEW035 SCT200
     FM311200 20006KT P6SM BKN020 OVC150
      TEMPO 3112/3115 5SM BR OVC015
     FM311500 23008KT P6SM BKN015 OVC030
     FM312100 23007KT P6SM SCT050 BKN250=

USA.gov is the U.S. government's official web portal to all federal, state and local government web resources and services.